createdAt,value
2023-02-22T00:01:51.109Z,100.00
2023-02-22T00:04:21.288Z,100.00
2023-02-22T00:06:49.688Z,100.00
2023-02-22T00:09:21.489Z,100.00
2023-02-22T00:11:48.970Z,100.00
2023-02-22T00:14:15.924Z,100.00
2023-02-22T00:16:42.549Z,100.00
2023-02-22T00:19:13.676Z,100.00
2023-02-22T00:21:40.376Z,100.00
2023-02-22T00:24:23.122Z,100.00
2023-02-22T00:26:51.762Z,100.00
2023-02-22T00:29:18.606Z,100.00
2023-02-22T00:31:46.445Z,100.00
2023-02-22T00:34:13.986Z,100.00
2023-02-22T00:36:47.832Z,100.00
2023-02-22T00:39:14.647Z,100.00
2023-02-22T00:41:41.804Z,100.00
2023-02-22T00:44:08.605Z,100.00
2023-02-22T00:46:35.248Z,100.00
2023-02-22T00:49:03.404Z,100.00
2023-02-22T00:51:30.023Z,100.00
2023-02-22T00:53:56.821Z,100.00
2023-02-22T00:56:26.969Z,100.00
2023-02-22T00:58:54.249Z,100.00
2023-02-22T01:01:20.884Z,100.00
2023-02-22T01:03:47.988Z,100.00
2023-02-22T01:06:14.627Z,100.00
2023-02-22T01:08:45.033Z,100.00
2023-02-22T01:11:11.926Z,100.00
2023-02-22T01:13:38.612Z,100.00
2023-02-22T01:16:08.316Z,100.00
2023-02-22T01:18:35.866Z,100.00
2023-02-22T01:21:03.990Z,100.00
2023-02-22T01:23:30.928Z,100.00
2023-02-22T01:25:58.044Z,100.00
2023-02-22T01:28:24.688Z,100.00
2023-02-22T01:30:51.776Z,100.00
2023-02-22T01:33:18.445Z,100.00
2023-02-22T01:35:46.253Z,100.00
2023-02-22T01:38:14.193Z,100.00
2023-02-22T01:40:42.969Z,100.00
2023-02-22T01:43:21.689Z,100.00
2023-02-22T01:45:50.010Z,100.00
2023-02-22T01:48:28.381Z,100.00
2023-02-22T01:51:13.593Z,100.00
2023-02-22T01:53:46.006Z,100.00
2023-02-22T01:56:13.190Z,100.00
2023-02-22T01:58:42.587Z,100.00
2023-02-22T02:01:09.576Z,100.00
2023-02-22T02:03:38.582Z,100.00
2023-02-22T02:06:11.841Z,100.00
2023-02-22T02:08:49.924Z,100.00
2023-02-22T02:11:19.831Z,100.00
2023-02-22T02:13:47.445Z,100.00
2023-02-22T02:16:14.705Z,100.00
2023-02-22T02:18:41.339Z,100.00
2023-02-22T02:21:29.526Z,100.00
2023-02-22T02:24:21.154Z,100.00
2023-02-22T02:27:09.169Z,100.00
2023-02-22T02:30:13.644Z,100.00
2023-02-22T02:33:06.159Z,100.00
2023-02-22T02:35:43.588Z,100.00
2023-02-22T02:38:26.727Z,100.00
2023-02-22T02:41:07.674Z,100.00
2023-02-22T02:43:47.360Z,100.00
2023-02-22T02:46:23.033Z,100.00
2023-02-22T02:48:56.851Z,100.00
2023-02-22T02:51:28.274Z,100.00
2023-02-22T02:53:56.124Z,100.00
2023-02-22T02:56:23.552Z,100.00
2023-02-22T02:58:52.893Z,100.00
2023-02-22T03:01:33.433Z,100.00
2023-02-22T03:04:10.171Z,100.00
2023-02-22T03:07:03.591Z,100.00
2023-02-22T03:09:38.376Z,100.00
2023-02-22T03:12:16.918Z,100.00
2023-02-22T03:15:06.524Z,100.00
2023-02-22T03:17:41.420Z,100.00
2023-02-22T03:20:46.269Z,100.00
2023-02-22T03:23:24.882Z,100.00
2023-02-22T03:25:56.592Z,100.00
2023-02-22T03:28:29.040Z,100.00
2023-02-22T03:31:02.032Z,100.00
2023-02-22T03:33:37.849Z,100.00
2023-02-22T03:36:16.159Z,100.00
2023-02-22T03:38:44.649Z,100.00
2023-02-22T03:41:12.009Z,100.00
2023-02-22T03:43:44.721Z,100.00
2023-02-22T03:46:12.600Z,100.00
2023-02-22T03:49:03.634Z,100.00
2023-02-22T03:51:30.656Z,100.00
2023-02-22T03:53:58.064Z,100.00
2023-02-22T03:56:35.848Z,100.00
2023-02-22T03:59:07.736Z,100.00
2023-02-22T04:01:34.811Z,100.00
2023-02-22T04:04:01.570Z,100.00
2023-02-22T04:06:28.970Z,100.00
2023-02-22T04:08:56.186Z,100.00
2023-02-22T04:11:25.478Z,100.00
2023-02-22T04:13:54.824Z,100.00
2023-02-22T04:16:22.931Z,100.00
2023-02-22T04:18:49.623Z,100.00
2023-02-22T04:21:16.487Z,100.00
2023-02-22T04:23:43.288Z,100.00
2023-02-22T04:26:10.084Z,100.00
2023-02-22T04:28:36.668Z,100.00
2023-02-22T04:31:04.714Z,100.00
2023-02-22T04:33:33.470Z,100.00
2023-02-22T04:36:00.151Z,100.00
2023-02-22T04:38:27.092Z,100.00
2023-02-22T04:40:56.898Z,100.00
2023-02-22T04:43:23.594Z,100.00
2023-02-22T04:45:50.864Z,100.00
2023-02-22T04:48:17.457Z,100.00
2023-02-22T04:50:44.118Z,100.00
2023-02-22T04:53:10.846Z,100.00
2023-02-22T04:55:37.509Z,100.00
2023-02-22T04:58:04.220Z,100.00
2023-02-22T05:00:30.903Z,100.00
2023-02-22T05:02:57.792Z,100.00
2023-02-22T05:05:25.268Z,100.00
2023-02-22T05:07:52.589Z,100.00
2023-02-22T05:10:19.691Z,100.00
2023-02-22T05:12:46.393Z,100.00
2023-02-22T05:15:18.487Z,100.00
2023-02-22T05:17:45.263Z,100.00
2023-02-22T05:20:24.123Z,100.00
2023-02-22T05:22:52.004Z,100.00
2023-02-22T05:25:20.489Z,100.00
2023-02-22T05:27:55.259Z,100.00
2023-02-22T05:30:31.238Z,100.00
2023-02-22T05:32:59.327Z,100.00
2023-02-22T05:35:27.142Z,100.00
2023-02-22T05:37:53.782Z,100.00
2023-02-22T05:40:23.105Z,100.00
2023-02-22T05:42:50.771Z,100.00
2023-02-22T05:45:19.620Z,100.00
2023-02-22T05:47:46.611Z,100.00
2023-02-22T05:50:14.546Z,100.00
2023-02-22T05:52:41.331Z,100.00
2023-02-22T05:55:09.036Z,100.00
2023-02-22T05:57:35.846Z,100.00
2023-02-22T06:00:10.067Z,100.00
2023-02-22T06:02:36.837Z,100.00
2023-02-22T06:05:03.467Z,100.00
2023-02-22T06:07:30.076Z,100.00
2023-02-22T06:09:56.705Z,100.00
2023-02-22T06:12:23.350Z,100.00
2023-02-22T06:14:50.003Z,100.00
2023-02-22T06:17:18.033Z,100.00
2023-02-22T06:19:45.528Z,100.00
2023-02-22T06:22:18.098Z,100.00
2023-02-22T06:24:44.824Z,100.00
2023-02-22T06:27:11.439Z,100.00
2023-02-22T06:29:38.349Z,100.00
2023-02-22T06:32:05.265Z,100.00
2023-02-22T06:34:32.317Z,100.00
2023-02-22T06:37:00.064Z,100.00
2023-02-22T06:39:26.737Z,100.00
2023-02-22T06:41:55.306Z,100.00
2023-02-22T06:44:21.928Z,100.00
2023-02-22T06:46:51.162Z,100.00
2023-02-22T06:49:19.719Z,100.00
2023-02-22T06:51:46.775Z,100.00
2023-02-22T06:54:13.873Z,100.00
2023-02-22T06:56:40.573Z,100.00
2023-02-22T06:59:08.470Z,100.00
2023-02-22T07:01:35.365Z,100.00
2023-02-22T07:04:01.982Z,100.00
2023-02-22T07:06:28.715Z,100.00
2023-02-22T07:08:55.328Z,100.00
2023-02-22T07:11:21.969Z,100.00
2023-02-22T07:13:48.657Z,100.00
2023-02-22T07:16:15.369Z,100.00
2023-02-22T07:18:41.998Z,100.00
2023-02-22T07:21:08.650Z,100.00
2023-02-22T07:23:35.267Z,100.00
2023-02-22T07:26:02.686Z,100.00
2023-02-22T07:28:29.449Z,100.00
2023-02-22T07:30:56.037Z,100.00
2023-02-22T07:33:22.665Z,100.00
2023-02-22T07:35:50.877Z,100.00
2023-02-22T07:38:18.915Z,100.00
2023-02-22T07:40:45.764Z,100.00
2023-02-22T07:43:25.879Z,100.00
2023-02-22T07:45:54.136Z,100.00
2023-02-22T07:48:22.696Z,100.00
2023-02-22T07:50:49.595Z,100.00
2023-02-22T07:53:30.803Z,100.00
2023-02-22T07:56:02.341Z,100.00
2023-02-22T07:58:30.660Z,100.00
2023-02-22T08:00:57.739Z,100.00
2023-02-22T08:03:26.062Z,100.00
2023-02-22T08:05:54.941Z,100.00
2023-02-22T08:08:22.093Z,100.00
2023-02-22T08:10:50.061Z,100.00
2023-02-22T08:13:17.480Z,100.00
2023-02-22T08:15:44.498Z,100.00
2023-02-22T08:18:14.082Z,100.00
2023-02-22T08:20:42.609Z,100.00
2023-02-22T08:23:10.215Z,100.00
2023-02-22T08:25:37.388Z,100.00
2023-02-22T08:28:09.559Z,100.00
2023-02-22T08:30:40.043Z,100.00
2023-02-22T08:33:07.219Z,100.00
2023-02-22T08:35:34.228Z,100.00
2023-02-22T08:38:03.615Z,100.00
2023-02-22T08:40:32.677Z,100.00
2023-02-22T08:42:59.341Z,100.00
2023-02-22T08:45:26.040Z,100.00
2023-02-22T08:47:52.653Z,100.00
2023-02-22T08:50:25.111Z,100.00
2023-02-22T08:52:53.893Z,100.00
2023-02-22T08:55:21.962Z,100.00
2023-02-22T08:57:48.577Z,100.00
2023-02-22T09:00:15.866Z,100.00
2023-02-22T09:02:42.447Z,100.00
2023-02-22T09:05:09.275Z,100.00
2023-02-22T09:07:35.903Z,100.00
2023-02-22T09:10:02.512Z,100.00
2023-02-22T09:12:29.201Z,100.00
2023-02-22T09:14:55.789Z,100.00
2023-02-22T09:17:22.393Z,100.00
2023-02-22T09:19:48.982Z,100.00
2023-02-22T09:22:15.629Z,100.00
2023-02-22T09:24:43.388Z,100.00
2023-02-22T09:27:12.176Z,100.00
2023-02-22T09:29:39.511Z,100.00
2023-02-22T09:32:06.351Z,100.00
2023-02-22T09:34:35.319Z,100.00
2023-02-22T09:37:02.014Z,100.00
2023-02-22T09:39:29.218Z,100.00
2023-02-22T09:42:24.042Z,100.00
2023-02-22T09:44:59.743Z,100.00
2023-02-22T09:48:08.200Z,100.00
2023-02-22T09:50:44.814Z,100.00
2023-02-22T09:53:29.455Z,100.00
2023-02-22T09:56:00.527Z,100.00
2023-02-22T09:58:42.943Z,100.00
2023-02-22T10:01:28.432Z,100.00
2023-02-22T10:04:12.372Z,100.00
2023-02-22T10:06:39.840Z,100.00
2023-02-22T10:09:07.912Z,100.00
2023-02-22T10:11:34.479Z,100.00
2023-02-22T10:14:05.949Z,100.00
2023-02-22T10:16:43.577Z,100.00
2023-02-22T10:19:17.452Z,100.00
2023-02-22T10:22:07.737Z,100.00
2023-02-22T10:24:57.138Z,100.00
2023-02-22T10:27:39.917Z,97.94
2023-02-22T10:30:27.869Z,98.91
2023-02-22T10:33:05.275Z,98.08
2023-02-22T10:35:37.128Z,97.32
2023-02-22T10:38:16.584Z,93.60
2023-02-22T10:40:54.747Z,96.12
2023-02-22T10:43:21.706Z,95.46
2023-02-22T10:45:48.399Z,89.27
2023-02-22T10:48:18.526Z,91.50
2023-02-22T10:50:46.267Z,91.57
2023-02-22T10:53:15.370Z,88.90
2023-02-22T10:56:09.942Z,92.26
2023-02-22T10:58:57.680Z,91.33
2023-02-22T11:01:33.386Z,89.41
2023-02-22T11:04:11.033Z,89.90
2023-02-22T11:06:38.038Z,90.13
2023-02-22T11:09:12.369Z,92.25
2023-02-22T11:11:44.301Z,88.78
2023-02-22T11:14:12.561Z,84.45
2023-02-22T11:16:51.500Z,84.52
2023-02-22T11:19:26.578Z,84.18
2023-02-22T11:21:56.688Z,82.78
2023-02-22T11:24:24.861Z,82.82
2023-02-22T11:26:56.811Z,86.24
2023-02-22T11:29:33.560Z,87.64
2023-02-22T11:32:13.546Z,85.21
2023-02-22T11:34:42.761Z,85.06
2023-02-22T11:37:18.348Z,82.61
2023-02-22T11:39:45.596Z,79.57
2023-02-22T11:42:27.280Z,79.54
2023-02-22T11:45:21.479Z,81.63
2023-02-22T11:47:52.634Z,83.17
2023-02-22T11:50:28.199Z,81.12
2023-02-22T11:53:05.424Z,83.10
2023-02-22T11:55:43.134Z,78.92
2023-02-22T11:58:40.944Z,79.73
2023-02-22T12:01:31.695Z,81.92
2023-02-22T12:04:23.084Z,81.78
2023-02-22T12:07:17.929Z,82.06
2023-02-22T12:09:51.792Z,83.23
2023-02-22T12:12:32.689Z,81.32
2023-02-22T12:15:13.941Z,79.43
2023-02-22T12:18:00.040Z,77.88
2023-02-22T12:20:39.589Z,79.88
2023-02-22T12:23:12.884Z,78.85
2023-02-22T12:25:42.665Z,77.85
2023-02-22T12:28:25.047Z,77.73
2023-02-22T12:31:06.204Z,74.56
2023-02-22T12:33:46.368Z,73.55
2023-02-22T12:36:16.396Z,76.78
2023-02-22T12:38:44.609Z,76.26
2023-02-22T12:41:33.344Z,78.00
2023-02-22T12:44:05.238Z,75.23
2023-02-22T12:46:44.418Z,74.69
2023-02-22T12:49:33.479Z,78.30
2023-02-22T12:52:15.920Z,76.13
2023-02-22T12:54:56.461Z,76.89
2023-02-22T12:58:01.285Z,73.88
2023-02-22T13:00:37.960Z,74.73
2023-02-22T13:03:36.628Z,75.31
2023-02-22T13:06:28.038Z,74.39
2023-02-22T13:09:35.938Z,78.11
2023-02-22T13:12:31.586Z,75.71
2023-02-22T13:15:10.924Z,76.67
2023-02-22T13:18:05.044Z,75.02
2023-02-22T13:20:46.979Z,76.58
2023-02-22T13:23:19.473Z,76.26
2023-02-22T13:25:58.109Z,73.91
2023-02-22T13:28:43.297Z,74.93
2023-02-22T13:31:22.223Z,76.44
2023-02-22T13:34:06.781Z,76.34
2023-02-22T13:36:45.429Z,75.88
2023-02-22T13:39:31.238Z,75.67
2023-02-22T13:42:19.745Z,75.85
2023-02-22T13:45:23.801Z,73.99
2023-02-22T13:47:59.267Z,75.38
2023-02-22T13:51:04.697Z,77.16
2023-02-22T13:53:44.110Z,78.07
2023-02-22T13:56:11.946Z,76.07
2023-02-22T13:58:58.731Z,79.95
2023-02-22T14:01:46.347Z,81.31
2023-02-22T14:04:32.182Z,80.61
2023-02-22T14:07:25.957Z,79.68
2023-02-22T14:09:57.081Z,80.18
2023-02-22T14:12:49.419Z,81.79
2023-02-22T14:15:29.186Z,80.69
2023-02-22T14:18:07.444Z,81.24
2023-02-22T14:20:40.203Z,77.28
2023-02-22T14:23:28.207Z,79.09
2023-02-22T14:25:55.465Z,77.90
2023-02-22T14:28:48.813Z,80.38
2023-02-22T14:31:34.454Z,81.67
2023-02-22T14:34:17.454Z,81.46
2023-02-22T14:37:01.058Z,79.58
2023-02-22T14:39:33.065Z,79.59
2023-02-22T14:42:01.504Z,82.05
2023-02-22T14:44:33.563Z,81.46
2023-02-22T14:47:05.112Z,82.51
2023-02-22T14:49:36.390Z,84.19
2023-02-22T14:52:08.305Z,82.56
2023-02-22T14:54:37.126Z,77.97
2023-02-22T14:57:14.786Z,80.94
2023-02-22T14:59:58.962Z,83.84
2023-02-22T15:02:26.154Z,80.46
2023-02-22T15:04:55.199Z,81.59
2023-02-22T15:07:31.261Z,82.41
2023-02-22T15:10:14.271Z,79.10
2023-02-22T15:12:40.942Z,81.16
2023-02-22T15:15:26.083Z,82.65
2023-02-22T15:17:55.001Z,86.65
2023-02-22T15:20:22.095Z,79.21
2023-02-22T15:22:49.914Z,80.19
2023-02-22T15:25:24.001Z,82.09
2023-02-22T15:27:50.657Z,85.04
2023-02-22T15:30:26.903Z,84.48
2023-02-22T15:33:04.967Z,82.13
2023-02-22T15:35:33.629Z,86.92
2023-02-22T15:38:08.935Z,82.61
2023-02-22T15:40:35.991Z,82.79
2023-02-22T15:43:10.650Z,83.07
2023-02-22T15:45:42.927Z,85.30
2023-02-22T15:48:14.562Z,84.32
2023-02-22T15:50:58.833Z,82.35
2023-02-22T15:53:32.024Z,85.64
2023-02-22T15:56:00.517Z,81.81
2023-02-22T15:58:31.235Z,85.97
2023-02-22T16:01:02.229Z,88.63
2023-02-22T16:03:48.459Z,87.72
2023-02-22T16:06:26.649Z,85.08
2023-02-22T16:08:55.364Z,86.78
2023-02-22T16:11:35.585Z,88.90
2023-02-22T16:14:05.260Z,87.06
2023-02-22T16:16:41.483Z,87.04
2023-02-22T16:19:36.513Z,87.62
2023-02-22T16:22:04.749Z,86.52
2023-02-22T16:24:36.228Z,88.77
2023-02-22T16:27:10.436Z,91.13
2023-02-22T16:29:37.078Z,93.19
2023-02-22T16:32:04.038Z,90.08
2023-02-22T16:34:30.804Z,92.55
2023-02-22T16:36:58.027Z,89.76
2023-02-22T16:39:29.714Z,90.20
2023-02-22T16:41:58.720Z,88.63
2023-02-22T16:44:25.804Z,91.90
2023-02-22T16:46:53.454Z,92.41
2023-02-22T16:49:20.672Z,94.36
2023-02-22T16:51:56.248Z,94.38
2023-02-22T16:54:26.997Z,97.56
2023-02-22T16:56:56.121Z,97.04
2023-02-22T16:59:23.133Z,98.49
2023-02-22T17:01:51.269Z,98.85
2023-02-22T17:04:21.792Z,96.28
2023-02-22T17:06:48.483Z,97.33
2023-02-22T17:09:20.139Z,98.16
2023-02-22T17:11:49.534Z,96.02
2023-02-22T17:14:23.486Z,98.49
2023-02-22T17:16:50.808Z,98.20
2023-02-22T17:19:22.652Z,100.00
2023-02-22T17:21:50.014Z,99.57
2023-02-22T17:24:18.601Z,98.05
2023-02-22T17:26:45.635Z,100.00
2023-02-22T17:29:13.744Z,100.00
2023-02-22T17:31:40.493Z,100.00
2023-02-22T17:34:07.557Z,100.00
2023-02-22T17:36:36.363Z,100.00
2023-02-22T17:39:04.063Z,100.00
2023-02-22T17:41:31.024Z,100.00
2023-02-22T17:43:58.140Z,100.00
2023-02-22T17:46:25.538Z,100.00
2023-02-22T17:48:55.171Z,100.00
2023-02-22T17:51:23.299Z,100.00
2023-02-22T17:53:50.187Z,100.00
2023-02-22T17:56:18.843Z,100.00
2023-02-22T17:58:47.805Z,100.00
2023-02-22T18:01:27.121Z,100.00
2023-02-22T18:03:55.407Z,100.00
2023-02-22T18:06:25.211Z,100.00
2023-02-22T18:08:56.784Z,100.00
2023-02-22T18:11:26.617Z,100.00
2023-02-22T18:13:56.914Z,100.00
2023-02-22T18:16:25.957Z,100.00
2023-02-22T18:18:55.294Z,100.00
2023-02-22T18:21:22.725Z,100.00
2023-02-22T18:23:49.426Z,100.00
2023-02-22T18:26:17.886Z,100.00
2023-02-22T18:28:44.783Z,100.00
2023-02-22T18:31:15.362Z,100.00
2023-02-22T18:33:47.453Z,100.00
2023-02-22T18:36:14.740Z,100.00
2023-02-22T18:38:43.169Z,100.00
2023-02-22T18:41:17.610Z,100.00
2023-02-22T18:43:44.744Z,100.00
2023-02-22T18:46:19.395Z,100.00
2023-02-22T18:48:47.892Z,100.00
2023-02-22T18:51:17.275Z,100.00
2023-02-22T18:53:47.139Z,100.00
2023-02-22T18:56:16.857Z,100.00
2023-02-22T18:58:44.097Z,100.00
2023-02-22T19:01:16.081Z,100.00
2023-02-22T19:03:42.987Z,100.00
2023-02-22T19:06:10.022Z,100.00
2023-02-22T19:08:40.684Z,100.00
2023-02-22T19:11:12.719Z,100.00
2023-02-22T19:13:39.380Z,100.00
2023-02-22T19:16:07.371Z,100.00
2023-02-22T19:18:34.280Z,100.00
2023-02-22T19:21:03.092Z,100.00
2023-02-22T19:23:34.418Z,100.00
2023-02-22T19:26:03.164Z,100.00
2023-02-22T19:28:34.140Z,100.00
2023-02-22T19:31:11.162Z,100.00
2023-02-22T19:33:37.991Z,100.00
2023-02-22T19:36:05.032Z,100.00
2023-02-22T19:38:31.711Z,100.00
2023-02-22T19:40:58.776Z,100.00
2023-02-22T19:43:25.417Z,100.00
2023-02-22T19:45:52.059Z,100.00
2023-02-22T19:48:19.117Z,100.00
2023-02-22T19:50:49.499Z,100.00
2023-02-22T19:53:16.614Z,100.00
2023-02-22T19:55:43.534Z,100.00
2023-02-22T19:58:10.237Z,100.00
2023-02-22T20:00:37.116Z,100.00
2023-02-22T20:03:06.700Z,100.00
2023-02-22T20:05:36.463Z,100.00
2023-02-22T20:08:03.214Z,100.00
2023-02-22T20:10:29.974Z,100.00
2023-02-22T20:12:56.709Z,100.00
2023-02-22T20:15:24.004Z,100.00
2023-02-22T20:17:53.541Z,100.00
2023-02-22T20:20:28.449Z,100.00
2023-02-22T20:22:56.956Z,100.00
2023-02-22T20:25:25.253Z,100.00
2023-02-22T20:27:51.906Z,100.00
2023-02-22T20:30:19.478Z,100.00
2023-02-22T20:32:46.365Z,100.00
2023-02-22T20:35:13.633Z,100.00
2023-02-22T20:37:42.547Z,100.00
2023-02-22T20:40:15.645Z,100.00
2023-02-22T20:42:47.463Z,100.00
2023-02-22T20:45:16.202Z,100.00
2023-02-22T20:47:43.128Z,100.00
2023-02-22T20:50:15.897Z,100.00
2023-02-22T20:52:42.510Z,100.00
2023-02-22T20:55:11.531Z,100.00
2023-02-22T20:57:38.620Z,100.00
2023-02-22T21:00:10.579Z,100.00
2023-02-22T21:02:38.550Z,100.00
2023-02-22T21:05:06.510Z,100.00
2023-02-22T21:07:33.449Z,100.00
2023-02-22T21:10:00.104Z,100.00
2023-02-22T21:12:27.010Z,100.00
2023-02-22T21:14:54.279Z,100.00
2023-02-22T21:17:28.718Z,100.00
2023-02-22T21:19:58.665Z,100.00
2023-02-22T21:22:26.094Z,100.00
2023-02-22T21:24:53.412Z,100.00
2023-02-22T21:27:20.084Z,100.00
2023-02-22T21:29:47.345Z,100.00
2023-02-22T21:32:15.079Z,100.00
2023-02-22T21:34:42.074Z,100.00
2023-02-22T21:37:11.174Z,100.00
2023-02-22T21:39:40.675Z,100.00
2023-02-22T21:42:16.175Z,100.00
2023-02-22T21:44:59.885Z,100.00
2023-02-22T21:47:45.882Z,100.00
2023-02-22T21:50:20.953Z,100.00
2023-02-22T21:53:02.537Z,100.00
2023-02-22T21:55:39.284Z,100.00
2023-02-22T21:58:19.128Z,100.00
2023-02-22T22:01:05.592Z,100.00
2023-02-22T22:03:38.025Z,100.00
2023-02-22T22:09:35.392Z,100.00
2023-02-22T22:12:14.630Z,100.00
2023-02-22T22:14:52.901Z,100.00
2023-02-22T22:17:22.765Z,100.00
2023-02-22T22:19:51.191Z,100.00
2023-02-22T22:22:17.816Z,100.00
2023-02-22T22:24:48.604Z,100.00
2023-02-22T22:27:15.986Z,100.00
2023-02-22T22:29:43.516Z,100.00
2023-02-22T22:32:10.705Z,100.00
2023-02-22T22:34:37.887Z,100.00
2023-02-22T22:37:08.576Z,100.00
2023-02-22T22:39:38.532Z,100.00
2023-02-22T22:42:05.233Z,100.00
2023-02-22T22:44:40.913Z,100.00
2023-02-22T22:47:12.205Z,100.00
2023-02-22T22:49:42.819Z,100.00
2023-02-22T22:52:10.404Z,100.00
2023-02-22T22:54:38.320Z,100.00
2023-02-22T22:57:08.008Z,100.00
2023-02-22T22:59:35.139Z,100.00
2023-02-22T23:02:03.330Z,100.00
2023-02-22T23:04:30.109Z,100.00
2023-02-22T23:06:56.767Z,100.00
2023-02-22T23:09:25.201Z,100.00
2023-02-22T23:11:55.040Z,100.00
2023-02-22T23:14:32.079Z,100.00
2023-02-22T23:17:03.564Z,100.00
2023-02-22T23:19:36.111Z,100.00
2023-02-22T23:22:05.602Z,100.00
2023-02-22T23:24:36.109Z,100.00
2023-02-22T23:27:06.923Z,100.00
2023-02-22T23:29:37.269Z,100.00
2023-02-22T23:32:05.796Z,100.00
2023-02-22T23:34:35.127Z,100.00
2023-02-22T23:37:01.864Z,100.00
2023-02-22T23:39:30.619Z,100.00
2023-02-22T23:42:01.676Z,100.00
2023-02-22T23:44:28.879Z,100.00
2023-02-22T23:46:58.357Z,100.00
2023-02-22T23:49:36.044Z,100.00
2023-02-22T23:52:06.766Z,100.00
2023-02-22T23:54:36.555Z,100.00
2023-02-22T23:57:04.601Z,100.00
2023-02-22T23:59:32.401Z,100.00
